sensor_id;sensor_type;location;lat;lon;timestamp;P1;durP1;ratioP1;P2;durP2;ratioP2
22571;SDS011;11452;53.368;14.658;2023-03-01T00:00:27;2.67;;;1.70;;
22571;SDS011;11452;53.368;14.658;2023-03-01T00:05:33;2.20;;;1.47;;
22571;SDS011;11452;53.368;14.658;2023-03-01T00:10:38;1.33;;;1.20;;
22571;SDS011;11452;53.368;14.658;2023-03-01T00:15:44;1.30;;;1.13;;
22571;SDS011;11452;53.368;14.658;2023-03-01T00:20:50;1.93;;;1.03;;
22571;SDS011;11452;53.368;14.658;2023-03-01T00:25:57;1.60;;;0.90;;
22571;SDS011;11452;53.368;14.658;2023-03-01T00:31:03;2.13;;;1.20;;
22571;SDS011;11452;53.368;14.658;2023-03-01T00:36:11;0.97;;;0.87;;
22571;SDS011;11452;53.368;14.658;2023-03-01T00:41:18;5.03;;;1.30;;
22571;SDS011;11452;53.368;14.658;2023-03-01T00:46:26;1.40;;;1.10;;
22571;SDS011;11452;53.368;14.658;2023-03-01T00:51:34;1.93;;;1.10;;
22571;SDS011;11452;53.368;14.658;2023-03-01T00:56:40;1.50;;;1.00;;
22571;SDS011;11452;53.368;14.658;2023-03-01T01:01:45;1.73;;;1.13;;
22571;SDS011;11452;53.368;14.658;2023-03-01T01:06:51;3.13;;;1.47;;
22571;SDS011;11452;53.368;14.658;2023-03-01T01:11:57;2.17;;;1.17;;
22571;SDS011;11452;53.368;14.658;2023-03-01T01:17:03;3.23;;;1.13;;
22571;SDS011;11452;53.368;14.658;2023-03-01T01:22:09;3.83;;;2.33;;
22571;SDS011;11452;53.368;14.658;2023-03-01T01:27:14;3.27;;;1.23;;
22571;SDS011;11452;53.368;14.658;2023-03-01T01:32:19;3.37;;;1.80;;
22571;SDS011;11452;53.368;14.658;2023-03-01T01:37:27;1.80;;;1.50;;
22571;SDS011;11452;53.368;14.658;2023-03-01T01:42:34;3.77;;;1.30;;
22571;SDS011;11452;53.368;14.658;2023-03-01T01:47:39;2.40;;;1.30;;
22571;SDS011;11452;53.368;14.658;2023-03-01T01:52:45;4.73;;;1.50;;
22571;SDS011;11452;53.368;14.658;2023-03-01T01:57:54;1.97;;;1.30;;
22571;SDS011;11452;53.368;14.658;2023-03-01T02:03:09;3.63;;;2.13;;
22571;SDS011;11452;53.368;14.658;2023-03-01T02:08:17;4.40;;;1.40;;
22571;SDS011;11452;53.368;14.658;2023-03-01T02:13:24;2.77;;;1.40;;
22571;SDS011;11452;53.368;14.658;2023-03-01T02:18:30;6.63;;;1.40;;
22571;SDS011;11452;53.368;14.658;2023-03-01T02:23:35;3.43;;;1.50;;
22571;SDS011;11452;53.368;14.658;2023-03-01T02:28:42;2.57;;;1.37;;
22571;SDS011;11452;53.368;14.658;2023-03-01T02:33:49;5.13;;;1.73;;
22571;SDS011;11452;53.368;14.658;2023-03-01T02:38:58;2.83;;;1.70;;
22571;SDS011;11452;53.368;14.658;2023-03-01T02:44:05;4.07;;;1.60;;
22571;SDS011;11452;53.368;14.658;2023-03-01T02:49:28;2.70;;;1.50;;
22571;SDS011;11452;53.368;14.658;2023-03-01T02:54:40;2.90;;;1.83;;
22571;SDS011;11452;53.368;14.658;2023-03-01T02:59:47;3.17;;;1.50;;
22571;SDS011;11452;53.368;14.658;2023-03-01T03:04:55;3.40;;;2.07;;
22571;SDS011;11452;53.368;14.658;2023-03-01T03:10:02;3.50;;;1.90;;
22571;SDS011;11452;53.368;14.658;2023-03-01T03:15:09;7.80;;;2.83;;
22571;SDS011;11452;53.368;14.658;2023-03-01T03:20:17;3.53;;;1.97;;
22571;SDS011;11452;53.368;14.658;2023-03-01T03:25:25;2.23;;;1.63;;
22571;SDS011;11452;53.368;14.658;2023-03-01T03:30:32;2.80;;;1.80;;
22571;SDS011;11452;53.368;14.658;2023-03-01T03:35:38;1.93;;;1.47;;
22571;SDS011;11452;53.368;14.658;2023-03-01T03:40:47;4.23;;;1.50;;
22571;SDS011;11452;53.368;14.658;2023-03-01T03:45:57;3.37;;;2.43;;
22571;SDS011;11452;53.368;14.658;2023-03-01T03:51:03;2.07;;;1.87;;
22571;SDS011;11452;53.368;14.658;2023-03-01T03:56:09;3.37;;;1.87;;
22571;SDS011;11452;53.368;14.658;2023-03-01T04:01:16;3.00;;;2.00;;
22571;SDS011;11452;53.368;14.658;2023-03-01T04:06:21;2.70;;;1.60;;
22571;SDS011;11452;53.368;14.658;2023-03-01T04:11:27;3.27;;;2.20;;
22571;SDS011;11452;53.368;14.658;2023-03-01T04:16:33;2.43;;;1.50;;
22571;SDS011;11452;53.368;14.658;2023-03-01T04:21:38;2.23;;;1.80;;
22571;SDS011;11452;53.368;14.658;2023-03-01T04:26:43;3.47;;;2.13;;
22571;SDS011;11452;53.368;14.658;2023-03-01T04:31:49;3.53;;;2.23;;
22571;SDS011;11452;53.368;14.658;2023-03-01T04:36:54;4.47;;;2.03;;
22571;SDS011;11452;53.368;14.658;2023-03-01T04:42:00;2.37;;;2.17;;
22571;SDS011;11452;53.368;14.658;2023-03-01T04:47:06;3.30;;;1.83;;
22571;SDS011;11452;53.368;14.658;2023-03-01T04:52:11;3.57;;;2.07;;
22571;SDS011;11452;53.368;14.658;2023-03-01T04:57:17;2.23;;;1.97;;
22571;SDS011;11452;53.368;14.658;2023-03-01T05:02:22;3.30;;;2.00;;
22571;SDS011;11452;53.368;14.658;2023-03-01T05:07:28;3.47;;;2.13;;
22571;SDS011;11452;53.368;14.658;2023-03-01T05:12:34;4.77;;;2.47;;
22571;SDS011;11452;53.368;14.658;2023-03-01T05:17:40;3.80;;;2.53;;
22571;SDS011;11452;53.368;14.658;2023-03-01T05:22:46;3.03;;;2.00;;
22571;SDS011;11452;53.368;14.658;2023-03-01T05:27:51;3.30;;;2.20;;
22571;SDS011;11452;53.368;14.658;2023-03-01T05:32:57;2.77;;;2.33;;
22571;SDS011;11452;53.368;14.658;2023-03-01T05:38:02;3.70;;;2.00;;
22571;SDS011;11452;53.368;14.658;2023-03-01T05:43:08;3.20;;;2.13;;
22571;SDS011;11452;53.368;14.658;2023-03-01T05:48:13;6.63;;;2.53;;
22571;SDS011;11452;53.368;14.658;2023-03-01T05:53:19;6.87;;;2.97;;
22571;SDS011;11452;53.368;14.658;2023-03-01T05:58:25;4.13;;;2.77;;
22571;SDS011;11452;53.368;14.658;2023-03-01T06:03:30;3.60;;;2.60;;
22571;SDS011;11452;53.368;14.658;2023-03-01T06:08:36;4.87;;;2.37;;
22571;SDS011;11452;53.368;14.658;2023-03-01T06:13:42;4.03;;;2.40;;
22571;SDS011;11452;53.368;14.658;2023-03-01T06:18:48;3.90;;;2.60;;
22571;SDS011;11452;53.368;14.658;2023-03-01T06:23:53;3.40;;;2.20;;
22571;SDS011;11452;53.368;14.658;2023-03-01T06:28:59;2.10;;;1.90;;
22571;SDS011;11452;53.368;14.658;2023-03-01T06:34:04;2.57;;;1.90;;
22571;SDS011;11452;53.368;14.658;2023-03-01T06:39:10;3.07;;;1.73;;
22571;SDS011;11452;53.368;14.658;2023-03-01T06:44:15;2.53;;;2.20;;
22571;SDS011;11452;53.368;14.658;2023-03-01T06:49:21;4.50;;;2.33;;
22571;SDS011;11452;53.368;14.658;2023-03-01T06:54:26;4.43;;;2.10;;
22571;SDS011;11452;53.368;14.658;2023-03-01T06:59:32;2.30;;;1.70;;
22571;SDS011;11452;53.368;14.658;2023-03-01T07:04:38;4.47;;;2.57;;
22571;SDS011;11452;53.368;14.658;2023-03-01T07:09:44;3.13;;;2.03;;
22571;SDS011;11452;53.368;14.658;2023-03-01T07:14:50;2.20;;;1.73;;
22571;SDS011;11452;53.368;14.658;2023-03-01T07:19:56;4.07;;;1.70;;
22571;SDS011;11452;53.368;14.658;2023-03-01T07:25:01;2.27;;;1.50;;
22571;SDS011;11452;53.368;14.658;2023-03-01T07:30:08;4.30;;;1.80;;
22571;SDS011;11452;53.368;14.658;2023-03-01T07:35:17;2.50;;;1.90;;
22571;SDS011;11452;53.368;14.658;2023-03-01T07:40:22;1.93;;;1.70;;
22571;SDS011;11452;53.368;14.658;2023-03-01T07:45:29;2.97;;;1.90;;
22571;SDS011;11452;53.368;14.658;2023-03-01T07:50:36;3.07;;;1.80;;
22571;SDS011;11452;53.368;14.658;2023-03-01T07:55:42;2.90;;;1.87;;
22571;SDS011;11452;53.368;14.658;2023-03-01T08:06:12;4.47;;;2.00;;
22571;SDS011;11452;53.368;14.658;2023-03-01T08:11:19;3.47;;;2.03;;
22571;SDS011;11452;53.368;14.658;2023-03-01T08:16:26;3.30;;;2.00;;
22571;SDS011;11452;53.368;14.658;2023-03-01T08:21:39;4.43;;;2.30;;
22571;SDS011;11452;53.368;14.658;2023-03-01T08:26:45;3.60;;;2.17;;
22571;SDS011;11452;53.368;14.658;2023-03-01T08:31:50;4.57;;;2.67;;
22571;SDS011;11452;53.368;14.658;2023-03-01T08:36:56;5.10;;;2.80;;
22571;SDS011;11452;53.368;14.658;2023-03-01T08:42:02;5.63;;;2.90;;
22571;SDS011;11452;53.368;14.658;2023-03-01T08:47:09;4.03;;;3.37;;
22571;SDS011;11452;53.368;14.658;2023-03-01T08:52:14;5.70;;;2.90;;
22571;SDS011;11452;53.368;14.658;2023-03-01T08:57:20;5.87;;;2.70;;
22571;SDS011;11452;53.368;14.658;2023-03-01T09:02:25;7.47;;;3.50;;
22571;SDS011;11452;53.368;14.658;2023-03-01T09:07:31;4.77;;;3.43;;
22571;SDS011;11452;53.368;14.658;2023-03-01T09:12:37;6.27;;;3.97;;
22571;SDS011;11452;53.368;14.658;2023-03-01T09:17:43;5.03;;;3.13;;
22571;SDS011;11452;53.368;14.658;2023-03-01T09:22:48;7.07;;;4.23;;
22571;SDS011;11452;53.368;14.658;2023-03-01T09:27:54;7.80;;;3.67;;
22571;SDS011;11452;53.368;14.658;2023-03-01T09:33:00;6.77;;;3.30;;
22571;SDS011;11452;53.368;14.658;2023-03-01T09:38:05;5.27;;;3.13;;
22571;SDS011;11452;53.368;14.658;2023-03-01T09:43:15;6.33;;;3.23;;
22571;SDS011;11452;53.368;14.658;2023-03-01T09:48:21;4.70;;;2.57;;
22571;SDS011;11452;53.368;14.658;2023-03-01T09:53:31;5.73;;;3.60;;
22571;SDS011;11452;53.368;14.658;2023-03-01T09:58:47;6.53;;;4.77;;
22571;SDS011;11452;53.368;14.658;2023-03-01T10:04:05;7.87;;;4.50;;
22571;SDS011;11452;53.368;14.658;2023-03-01T10:09:12;6.43;;;4.37;;
22571;SDS011;11452;53.368;14.658;2023-03-01T10:19:42;7.83;;;4.63;;
22571;SDS011;11452;53.368;14.658;2023-03-01T10:24:45;5.87;;;4.37;;
22571;SDS011;11452;53.368;14.658;2023-03-01T10:35:35;7.97;;;4.27;;
22571;SDS011;11452;53.368;14.658;2023-03-01T10:40:56;6.83;;;4.67;;
22571;SDS011;11452;53.368;14.658;2023-03-01T10:46:09;5.73;;;4.30;;
22571;SDS011;11452;53.368;14.658;2023-03-01T10:51:28;7.00;;;4.93;;
22571;SDS011;11452;53.368;14.658;2023-03-01T10:56:45;8.23;;;4.90;;
22571;SDS011;11452;53.368;14.658;2023-03-01T11:02:01;7.80;;;5.17;;
22571;SDS011;11452;53.368;14.658;2023-03-01T11:07:10;6.37;;;4.47;;
22571;SDS011;11452;53.368;14.658;2023-03-01T11:12:15;8.27;;;4.17;;
22571;SDS011;11452;53.368;14.658;2023-03-01T11:17:32;6.10;;;4.13;;
22571;SDS011;11452;53.368;14.658;2023-03-01T11:22:35;6.53;;;4.87;;
22571;SDS011;11452;53.368;14.658;2023-03-01T11:27:41;5.27;;;4.57;;
22571;SDS011;11452;53.368;14.658;2023-03-01T11:33:12;6.10;;;4.00;;
22571;SDS011;11452;53.368;14.658;2023-03-01T11:38:23;5.97;;;4.00;;
22571;SDS011;11452;53.368;14.658;2023-03-01T11:43:43;5.93;;;3.60;;
22571;SDS011;11452;53.368;14.658;2023-03-01T11:59:34;5.77;;;4.47;;
22571;SDS011;11452;53.368;14.658;2023-03-01T12:10:25;18.43;;;9.80;;
22571;SDS011;11452;53.368;14.658;2023-03-01T12:20:58;14.83;;;7.87;;
22571;SDS011;11452;53.368;14.658;2023-03-01T12:26:13;6.83;;;4.43;;
22571;SDS011;11452;53.368;14.658;2023-03-01T12:36:45;7.57;;;4.07;;
22571;SDS011;11452;53.368;14.658;2023-03-01T12:41:53;5.20;;;3.63;;
22571;SDS011;11452;53.368;14.658;2023-03-01T12:47:18;6.83;;;4.60;;
22571;SDS011;11452;53.368;14.658;2023-03-01T12:58:45;6.30;;;4.53;;
22571;SDS011;11452;53.368;14.658;2023-03-01T13:13:41;6.77;;;4.93;;
22571;SDS011;11452;53.368;14.658;2023-03-01T13:18:47;7.27;;;4.20;;
22571;SDS011;11452;53.368;14.658;2023-03-01T13:23:53;6.77;;;4.07;;
22571;SDS011;11452;53.368;14.658;2023-03-01T13:28:58;5.37;;;3.80;;
22571;SDS011;11452;53.368;14.658;2023-03-01T13:34:06;6.63;;;4.10;;
22571;SDS011;11452;53.368;14.658;2023-03-01T13:40:01;5.70;;;4.27;;
22571;SDS011;11452;53.368;14.658;2023-03-01T13:44:36;6.23;;;4.20;;
22571;SDS011;11452;53.368;14.658;2023-03-01T13:55:04;5.80;;;3.63;;
22571;SDS011;11452;53.368;14.658;2023-03-01T14:00:28;6.37;;;3.93;;
22571;SDS011;11452;53.368;14.658;2023-03-01T14:05:38;5.97;;;3.93;;
22571;SDS011;11452;53.368;14.658;2023-03-01T14:10:58;8.73;;;4.50;;
22571;SDS011;11452;53.368;14.658;2023-03-01T14:21:47;5.23;;;3.80;;
22571;SDS011;11452;53.368;14.658;2023-03-01T14:26:54;5.43;;;4.63;;
22571;SDS011;11452;53.368;14.658;2023-03-01T14:32:08;7.33;;;4.33;;
22571;SDS011;11452;53.368;14.658;2023-03-01T14:37:19;4.93;;;3.60;;
22571;SDS011;11452;53.368;14.658;2023-03-01T14:42:35;6.60;;;4.30;;
22571;SDS011;11452;53.368;14.658;2023-03-01T14:47:41;9.30;;;4.90;;
22571;SDS011;11452;53.368;14.658;2023-03-01T14:52:50;9.63;;;6.30;;
22571;SDS011;11452;53.368;14.658;2023-03-01T14:57:59;10.37;;;7.13;;
22571;SDS011;11452;53.368;14.658;2023-03-01T15:03:07;12.27;;;6.50;;
22571;SDS011;11452;53.368;14.658;2023-03-01T15:08:19;8.43;;;6.40;;
22571;SDS011;11452;53.368;14.658;2023-03-01T15:13:26;10.57;;;5.57;;
22571;SDS011;11452;53.368;14.658;2023-03-01T15:18:37;5.20;;;3.77;;
22571;SDS011;11452;53.368;14.658;2023-03-01T15:23:52;5.60;;;3.53;;
22571;SDS011;11452;53.368;14.658;2023-03-01T15:29:18;5.60;;;3.70;;
22571;SDS011;11452;53.368;14.658;2023-03-01T15:34:30;5.20;;;3.60;;
22571;SDS011;11452;53.368;14.658;2023-03-01T15:39:41;6.83;;;3.90;;
22571;SDS011;11452;53.368;14.658;2023-03-01T15:44:47;6.47;;;4.47;;
22571;SDS011;11452;53.368;14.658;2023-03-01T15:49:53;3.83;;;3.00;;
22571;SDS011;11452;53.368;14.658;2023-03-01T15:55:02;9.00;;;4.83;;
22571;SDS011;11452;53.368;14.658;2023-03-01T16:00:11;5.77;;;3.77;;
22571;SDS011;11452;53.368;14.658;2023-03-01T16:05:20;6.60;;;3.90;;
22571;SDS011;11452;53.368;14.658;2023-03-01T16:10:33;5.10;;;3.50;;
22571;SDS011;11452;53.368;14.658;2023-03-01T16:15:39;6.43;;;4.43;;
22571;SDS011;11452;53.368;14.658;2023-03-01T16:20:45;11.50;;;7.10;;
22571;SDS011;11452;53.368;14.658;2023-03-01T16:25:52;13.93;;;7.90;;
22571;SDS011;11452;53.368;14.658;2023-03-01T16:30:57;13.53;;;7.03;;
22571;SDS011;11452;53.368;14.658;2023-03-01T16:36:08;11.48;;;8.70;;
22571;SDS011;11452;53.368;14.658;2023-03-01T16:41:16;12.90;;;7.80;;
22571;SDS011;11452;53.368;14.658;2023-03-01T16:46:24;12.10;;;8.38;;
22571;SDS011;11452;53.368;14.658;2023-03-01T16:51:31;15.40;;;7.67;;
22571;SDS011;11452;53.368;14.658;2023-03-01T16:56:39;12.53;;;7.67;;
22571;SDS011;11452;53.368;14.658;2023-03-01T17:01:44;16.50;;;7.63;;
22571;SDS011;11452;53.368;14.658;2023-03-01T17:06:51;11.00;;;5.40;;
22571;SDS011;11452;53.368;14.658;2023-03-01T17:11:56;10.87;;;6.07;;
22571;SDS011;11452;53.368;14.658;2023-03-01T17:17:02;17.07;;;9.57;;
22571;SDS011;11452;53.368;14.658;2023-03-01T17:22:07;13.50;;;7.27;;
22571;SDS011;11452;53.368;14.658;2023-03-01T17:27:13;7.97;;;4.77;;
22571;SDS011;11452;53.368;14.658;2023-03-01T17:32:20;9.77;;;4.80;;
22571;SDS011;11452;53.368;14.658;2023-03-01T17:37:25;9.43;;;3.77;;
22571;SDS011;11452;53.368;14.658;2023-03-01T17:42:31;8.40;;;3.90;;
22571;SDS011;11452;53.368;14.658;2023-03-01T17:47:37;7.03;;;4.10;;
22571;SDS011;11452;53.368;14.658;2023-03-01T17:52:42;4.93;;;3.10;;
22571;SDS011;11452;53.368;14.658;2023-03-01T17:57:48;4.50;;;3.80;;
22571;SDS011;11452;53.368;14.658;2023-03-01T18:02:54;6.00;;;3.83;;
22571;SDS011;11452;53.368;14.658;2023-03-01T18:07:59;6.77;;;4.10;;
22571;SDS011;11452;53.368;14.658;2023-03-01T18:13:05;5.10;;;3.63;;
22571;SDS011;11452;53.368;14.658;2023-03-01T18:18:10;9.77;;;5.33;;
22571;SDS011;11452;53.368;14.658;2023-03-01T18:23:16;9.03;;;6.00;;
22571;SDS011;11452;53.368;14.658;2023-03-01T18:28:21;9.70;;;6.07;;
22571;SDS011;11452;53.368;14.658;2023-03-01T18:33:28;13.40;;;6.90;;
